East Cleveland, Ohio
Current Conditions -  °F | °C
As of 6:53 AM on Monday 24 Nov 2014 (Local Time) from KBKL Reporting Station
Few Clouds Few Clouds  
Wind Chill: 61°   Ceiling: Unl
Heat Index: 61°   Visibility: 10mi
Dew Point: 52°   Wind: 22mph
Humidity: 72%   Direction: 180°S
Pressure: 29.25"   Gusts: 32mph
Location:  41.53°N, 81.58°W
Report Text: KBKL 241153Z AUTO 18019G28KT 10SM FEW050 16/11 A2925 RMK AO2 PK WND 19030/1129 SLP904 60000 70013 T01610111 10161 20128 50016
Loading
Personal Weather Stations






























Interactive Weather Map New forecast layout! Learn more

10-Day Weather Forecast

Advertisements
Track Severe Weather on mobile